createdAt,value
2019-03-01T00:01:17.663Z,100265.66
2019-03-01T00:03:42.095Z,100263.06
2019-03-01T00:06:12.531Z,100271.27
2019-03-01T00:09:05.473Z,100269.47
2019-03-01T00:11:41.707Z,100272.16
2019-03-01T00:14:27.189Z,100267.00
2019-03-01T00:17:12.633Z,100268.21
2019-03-01T00:19:55.252Z,100266.66
2019-03-01T00:22:51.526Z,100264.59
2019-03-01T00:25:24.688Z,100256.30
2019-03-01T00:28:03.895Z,100250.42
2019-03-01T00:30:34.107Z,100251.09
2019-03-01T00:33:10.254Z,100247.55
2019-03-01T00:35:37.735Z,100248.17
2019-03-01T00:38:11.200Z,100247.64
2019-03-01T00:40:50.408Z,100250.77
2019-03-01T00:43:34.468Z,100251.55
2019-03-01T00:45:58.885Z,100248.70
2019-03-01T00:48:23.363Z,100246.61
2019-03-01T00:50:47.887Z,100245.41
2019-03-01T00:53:12.307Z,100237.24
2019-03-01T00:55:36.731Z,100237.95
2019-03-01T00:58:01.268Z,100235.34
2019-03-01T01:00:34.856Z,100225.48
2019-03-01T01:02:59.360Z,100224.95
2019-03-01T01:05:24.030Z,100219.24
2019-03-01T01:07:48.485Z,100216.21
2019-03-01T01:10:12.873Z,100208.58
2019-03-01T01:12:37.476Z,100209.65
2019-03-01T01:15:01.901Z,100205.15
2019-03-01T01:17:26.323Z,100206.33
2019-03-01T01:19:50.806Z,100204.89
2019-03-01T01:22:15.298Z,100206.59
2019-03-01T01:24:39.718Z,100202.11
2019-03-01T01:27:04.214Z,100195.48
2019-03-01T01:29:28.634Z,100193.98
2019-03-01T01:31:53.094Z,100194.34
2019-03-01T01:34:17.519Z,100196.80
2019-03-01T01:36:42.107Z,100198.11
2019-03-01T01:39:07.737Z,100195.00
2019-03-01T01:41:32.268Z,100193.66
2019-03-01T01:43:56.807Z,100191.50
2019-03-01T01:46:21.322Z,100188.39
2019-03-01T01:48:45.808Z,100181.45
2019-03-01T01:51:10.318Z,100182.94
2019-03-01T01:53:34.756Z,100185.69
2019-03-01T01:55:59.190Z,100180.86
2019-03-01T01:58:23.628Z,100180.22
2019-03-01T02:00:48.092Z,100183.44
2019-03-01T02:03:12.609Z,100174.20
2019-03-01T02:05:37.236Z,100186.36
2019-03-01T02:08:01.770Z,100179.94
2019-03-01T02:10:26.208Z,100178.36
2019-03-01T02:12:50.661Z,100177.86
2019-03-01T02:15:15.205Z,100173.89
2019-03-01T02:17:39.733Z,100172.49
2019-03-01T02:20:06.502Z,100171.53
2019-03-01T02:22:30.963Z,100175.69
2019-03-01T02:24:55.388Z,100178.66
2019-03-01T02:27:27.720Z,100174.73
2019-03-01T02:29:52.285Z,100164.33
2019-03-01T02:32:25.807Z,100157.43
2019-03-01T02:34:50.244Z,100158.72
2019-03-01T02:37:14.696Z,100149.30
2019-03-01T02:39:39.124Z,100148.25
2019-03-01T02:42:03.580Z,100146.10
2019-03-01T02:44:28.009Z,100142.68
2019-03-01T02:46:52.460Z,100147.82
2019-03-01T02:49:16.888Z,100139.58
2019-03-01T02:51:41.342Z,100140.38
2019-03-01T02:54:05.774Z,100146.10
2019-03-01T02:56:30.206Z,100145.65
2019-03-01T02:58:54.655Z,100141.72
2019-03-01T03:01:19.081Z,100142.34
2019-03-01T03:03:43.529Z,100144.27
2019-03-01T03:06:21.722Z,100144.45
2019-03-01T03:08:46.171Z,100143.65
2019-03-01T03:11:10.614Z,100128.86
2019-03-01T03:13:35.076Z,100135.55
2019-03-01T03:15:59.777Z,100144.19
2019-03-01T03:18:24.220Z,100143.73
2019-03-01T03:20:48.647Z,100137.86
2019-03-01T03:23:13.100Z,100131.80
2019-03-01T03:25:37.594Z,100130.55
2019-03-01T03:28:02.040Z,100130.01
2019-03-01T03:30:26.609Z,100120.96
2019-03-01T03:32:51.037Z,100124.73
2019-03-01T03:35:15.528Z,100124.35
2019-03-01T03:37:40.034Z,100118.46
2019-03-01T03:40:07.462Z,100109.98
2019-03-01T03:42:31.962Z,100109.89
2019-03-01T03:44:56.451Z,100108.98
2019-03-01T03:47:20.854Z,100109.55
2019-03-01T03:49:45.293Z,100106.29
2019-03-01T03:52:09.704Z,100111.13
2019-03-01T03:54:40.694Z,100107.59
2019-03-01T03:57:05.543Z,100107.63
2019-03-01T03:59:29.995Z,100102.09
2019-03-01T04:01:54.532Z,100103.09
2019-03-01T04:04:19.058Z,100102.11
2019-03-01T04:06:43.563Z,100098.59
2019-03-01T04:09:08.332Z,100089.37
2019-03-01T04:11:32.751Z,100091.09
2019-03-01T04:13:57.170Z,100091.79
2019-03-01T04:16:21.675Z,100097.34
2019-03-01T04:18:46.108Z,100097.87
2019-03-01T04:21:10.552Z,100095.30
2019-03-01T04:23:34.973Z,100094.70
2019-03-01T04:25:59.434Z,100098.72
2019-03-01T04:28:23.849Z,100088.50
2019-03-01T04:30:48.369Z,100094.78
2019-03-01T04:33:12.885Z,100089.25
2019-03-01T04:35:37.328Z,100092.88
2019-03-01T04:38:01.834Z,100084.03
2019-03-01T04:40:26.287Z,100084.70
2019-03-01T04:42:50.710Z,100082.65
2019-03-01T04:45:16.986Z,100075.80
2019-03-01T04:47:41.551Z,100076.44
2019-03-01T04:50:08.655Z,100071.98
2019-03-01T04:52:34.622Z,100077.23
2019-03-01T04:54:59.061Z,100077.11
2019-03-01T04:57:23.560Z,100082.23
2019-03-01T04:59:48.015Z,100084.71
2019-03-01T05:02:12.465Z,100077.84
2019-03-01T05:04:36.900Z,100078.14
2019-03-01T05:07:02.116Z,100073.88
2019-03-01T05:09:26.555Z,100075.39
2019-03-01T05:11:50.967Z,100069.05
2019-03-01T05:14:15.420Z,100066.02
2019-03-01T05:16:39.905Z,100061.32
2019-03-01T05:19:04.466Z,100052.82
2019-03-01T05:21:28.922Z,100059.23
2019-03-01T05:23:53.341Z,100059.21
2019-03-01T05:26:17.794Z,100057.92
2019-03-01T05:28:42.221Z,100060.74
2019-03-01T05:31:06.676Z,100058.82
2019-03-01T05:33:31.102Z,100057.12
2019-03-01T05:35:55.760Z,100056.52
2019-03-01T05:38:22.007Z,100057.34
2019-03-01T05:40:46.329Z,100066.23
2019-03-01T05:43:10.758Z,100060.95
2019-03-01T05:45:35.187Z,100065.27
2019-03-01T05:47:59.613Z,100066.94
2019-03-01T05:50:24.162Z,100072.80
2019-03-01T05:52:48.572Z,100072.31
2019-03-01T05:55:13.744Z,100071.69
2019-03-01T05:57:57.428Z,100073.59
2019-03-01T06:00:21.855Z,100079.01
2019-03-01T06:02:49.323Z,100085.69
2019-03-01T06:05:14.883Z,100069.18
2019-03-01T06:07:42.461Z,100079.70
2019-03-01T06:10:34.871Z,100090.88
2019-03-01T06:13:04.939Z,100082.83
2019-03-01T06:15:32.399Z,100082.83
2019-03-01T06:18:20.716Z,100091.83
2019-03-01T06:21:00.291Z,100093.86
2019-03-01T06:23:36.679Z,100093.41
2019-03-01T06:26:28.111Z,100095.17
2019-03-01T06:29:10.459Z,100093.02
2019-03-01T06:31:40.880Z,100096.31
2019-03-01T06:34:11.339Z,100094.84
2019-03-01T06:36:47.197Z,100091.62
2019-03-01T06:39:52.531Z,100092.36
2019-03-01T06:42:38.324Z,100092.73
2019-03-01T06:45:08.823Z,100098.03
2019-03-01T06:47:50.015Z,100097.05
2019-03-01T06:50:18.985Z,100095.30
2019-03-01T06:52:43.475Z,100097.69
2019-03-01T06:55:10.945Z,100100.91
2019-03-01T06:57:35.361Z,100102.91
2019-03-01T06:59:59.845Z,100100.84
2019-03-01T07:02:25.925Z,100097.14
2019-03-01T07:04:50.335Z,100095.61
2019-03-01T07:07:14.763Z,100096.83
2019-03-01T07:09:39.175Z,100100.79
2019-03-01T07:12:03.603Z,100102.37
2019-03-01T07:14:28.041Z,100108.42
2019-03-01T07:16:52.472Z,100106.06
2019-03-01T07:19:16.907Z,100109.23
2019-03-01T07:21:41.369Z,100124.52
2019-03-01T07:24:06.031Z,100112.84
2019-03-01T07:26:30.549Z,100112.16
2019-03-01T07:28:54.962Z,100111.92
2019-03-01T07:31:19.405Z,100110.99
2019-03-01T07:33:43.836Z,100117.33
2019-03-01T07:36:08.274Z,100118.11
2019-03-01T07:38:32.709Z,100128.51
2019-03-01T07:40:57.190Z,100130.04
2019-03-01T07:43:21.610Z,100136.13
2019-03-01T07:45:46.049Z,100134.81
2019-03-01T07:48:10.584Z,100133.95
2019-03-01T07:50:35.021Z,100138.98
2019-03-01T07:53:00.321Z,100142.06
2019-03-01T07:55:28.500Z,100149.33
2019-03-01T07:57:51.744Z,100143.27
2019-03-01T08:00:17.130Z,100154.41
2019-03-01T08:02:41.582Z,100146.41
2019-03-01T08:05:09.544Z,100148.05
2019-03-01T08:07:33.984Z,100151.96
2019-03-01T08:09:58.402Z,100161.14
2019-03-01T08:12:22.860Z,100164.81
2019-03-01T08:14:47.275Z,100164.36
2019-03-01T08:17:11.809Z,100173.72
2019-03-01T08:19:36.237Z,100176.49
2019-03-01T08:22:00.669Z,100172.19
2019-03-01T08:24:25.106Z,100175.32
2019-03-01T08:26:49.528Z,100178.75
2019-03-01T08:29:13.984Z,100175.83
2019-03-01T08:31:38.388Z,100172.70
2019-03-01T08:34:02.834Z,100171.73
2019-03-01T08:36:27.274Z,100182.03
2019-03-01T08:38:51.737Z,100184.98
2019-03-01T08:41:16.150Z,100185.13
2019-03-01T08:43:40.705Z,100191.17
2019-03-01T08:46:05.473Z,100196.06
2019-03-01T08:48:33.666Z,100201.36
2019-03-01T08:50:57.433Z,100197.81
2019-03-01T08:53:21.953Z,100198.97
2019-03-01T08:55:46.358Z,100204.89
2019-03-01T08:58:10.869Z,100204.61
2019-03-01T09:00:38.383Z,100204.41
2019-03-01T09:03:05.856Z,100205.86
2019-03-01T09:05:30.277Z,100203.08
2019-03-01T09:07:54.691Z,100214.24
2019-03-01T09:10:19.228Z,100208.02
2019-03-01T09:12:43.796Z,100200.13
2019-03-01T09:15:11.342Z,100202.53
2019-03-01T09:17:35.752Z,100190.95
2019-03-01T09:20:01.097Z,100195.36
2019-03-01T09:22:28.027Z,100193.45
2019-03-01T09:24:51.817Z,100191.53
2019-03-01T09:27:16.238Z,100196.22
2019-03-01T09:29:41.871Z,100196.74
2019-03-01T09:32:07.560Z,100192.67
2019-03-01T09:34:32.982Z,100201.68
2019-03-01T09:36:57.590Z,100207.84
2019-03-01T09:39:22.019Z,100212.48
2019-03-01T09:41:46.622Z,100223.37
2019-03-01T09:44:11.105Z,100218.03
2019-03-01T09:46:35.619Z,100214.41
2019-03-01T09:49:00.052Z,100215.76
2019-03-01T09:51:24.633Z,100221.00
2019-03-01T09:53:49.110Z,100232.63
2019-03-01T09:56:13.894Z,100233.34
2019-03-01T09:58:38.280Z,100234.27
2019-03-01T10:01:14.760Z,100231.02
2019-03-01T10:03:39.238Z,100234.77
2019-03-01T10:06:03.754Z,100241.41
2019-03-01T10:08:28.199Z,100240.37
2019-03-01T10:10:52.635Z,100246.34
2019-03-01T10:13:17.958Z,100248.55
2019-03-01T10:15:42.535Z,100256.00
2019-03-01T10:18:07.077Z,100261.11
2019-03-01T10:20:31.553Z,100255.38
2019-03-01T10:22:55.976Z,100261.91
2019-03-01T10:25:21.322Z,100261.30
2019-03-01T10:27:45.831Z,100260.33
2019-03-01T10:30:18.376Z,100259.50
2019-03-01T10:32:42.828Z,100260.39
2019-03-01T10:35:09.562Z,100265.64
2019-03-01T10:37:33.991Z,100267.87
2019-03-01T10:39:58.395Z,100273.94
2019-03-01T10:42:22.835Z,100270.73
2019-03-01T10:44:47.243Z,100269.19
2019-03-01T10:47:11.682Z,100268.07
2019-03-01T10:49:36.098Z,100274.58
2019-03-01T10:52:00.543Z,100276.38
2019-03-01T10:54:24.954Z,100276.74
2019-03-01T10:56:49.375Z,100279.01
2019-03-01T10:59:13.780Z,100282.52
2019-03-01T11:01:38.368Z,100290.61
2019-03-01T11:04:02.766Z,100282.77
2019-03-01T11:06:27.183Z,100292.94
2019-03-01T11:08:51.680Z,100292.49
2019-03-01T11:11:16.085Z,100292.81
2019-03-01T11:13:40.565Z,100292.34
2019-03-01T11:16:05.196Z,100294.31
2019-03-01T11:18:29.628Z,100296.25
2019-03-01T11:20:54.112Z,100301.05
2019-03-01T11:23:18.561Z,100311.44
2019-03-01T11:25:43.112Z,100306.87
2019-03-01T11:28:07.555Z,100310.24
2019-03-01T11:30:33.386Z,100315.45
2019-03-01T11:32:57.824Z,100319.51
2019-03-01T11:35:22.316Z,100316.66
2019-03-01T11:37:46.883Z,100320.50
2019-03-01T11:40:14.835Z,100321.78
2019-03-01T11:42:39.273Z,100321.27
2019-03-01T11:45:04.795Z,100317.98
2019-03-01T11:47:29.227Z,100323.39
2019-03-01T11:49:53.632Z,100323.21
2019-03-01T11:52:18.043Z,100322.23
2019-03-01T11:54:42.465Z,100330.41
2019-03-01T11:57:06.869Z,100337.47
2019-03-01T11:59:31.307Z,100332.58
2019-03-01T12:01:55.721Z,100329.80
2019-03-01T12:04:20.145Z,100330.72
2019-03-01T12:06:44.556Z,100328.02
2019-03-01T12:09:09.240Z,100328.84
2019-03-01T12:11:33.639Z,100328.74
2019-03-01T12:13:58.065Z,100334.91
2019-03-01T12:16:22.473Z,100341.77
2019-03-01T12:18:47.012Z,100350.38
2019-03-01T12:21:11.414Z,100351.92
2019-03-01T12:23:35.863Z,100358.17
2019-03-01T12:26:00.280Z,100361.88
2019-03-01T12:28:24.786Z,100370.66
2019-03-01T12:30:49.277Z,100367.53
2019-03-01T12:33:13.706Z,100368.21
2019-03-01T12:35:38.150Z,100369.30
2019-03-01T12:38:02.566Z,100369.90
2019-03-01T12:40:28.050Z,100387.20
2019-03-01T12:42:52.535Z,100387.79
2019-03-01T12:45:17.057Z,100400.11
2019-03-01T12:47:41.599Z,100398.51
2019-03-01T12:50:09.095Z,100406.26
2019-03-01T12:52:33.574Z,100409.03
2019-03-01T12:54:57.993Z,100403.98
2019-03-01T12:57:22.440Z,100408.55
2019-03-01T12:59:46.992Z,100409.54
2019-03-01T13:02:11.420Z,100412.38
2019-03-01T13:04:35.819Z,100414.25
2019-03-01T13:07:00.286Z,100410.41
2019-03-01T13:09:26.505Z,100413.00
2019-03-01T13:11:51.503Z,100418.99
2019-03-01T13:14:16.472Z,100420.20
2019-03-01T13:16:40.913Z,100417.84
2019-03-01T13:19:05.424Z,100425.66
2019-03-01T13:21:29.874Z,100426.17
2019-03-01T13:23:54.345Z,100427.58
2019-03-01T13:26:18.745Z,100433.81
2019-03-01T13:28:43.898Z,100436.47
2019-03-01T13:31:11.387Z,100434.56
2019-03-01T13:33:37.481Z,100435.03
2019-03-01T13:36:03.657Z,100432.42
2019-03-01T13:38:30.383Z,100432.95
2019-03-01T13:40:54.665Z,100435.82
2019-03-01T13:43:19.095Z,100430.34
2019-03-01T13:45:43.500Z,100428.20
2019-03-01T13:48:07.941Z,100434.92
2019-03-01T13:50:32.404Z,100436.09
2019-03-01T13:52:56.837Z,100446.95
2019-03-01T13:55:23.838Z,100441.98
2019-03-01T13:57:51.104Z,100448.64
2019-03-01T14:00:19.924Z,100448.23
2019-03-01T14:02:46.842Z,100450.74
2019-03-01T14:05:13.332Z,100446.43
2019-03-01T14:07:39.355Z,100455.33
2019-03-01T14:10:05.866Z,100457.55
2019-03-01T14:12:30.710Z,100455.38
2019-03-01T14:14:55.317Z,100455.98
2019-03-01T14:17:21.110Z,100456.01
2019-03-01T14:19:46.080Z,100454.31
2019-03-01T14:22:13.830Z,100457.34
2019-03-01T14:24:38.153Z,100468.67
2019-03-01T14:27:04.261Z,100473.45
2019-03-01T14:29:28.903Z,100476.17
2019-03-01T14:31:53.368Z,100471.78
2019-03-01T14:34:17.894Z,100474.06
2019-03-01T14:36:44.019Z,100480.72
2019-03-01T14:39:11.486Z,100482.14
2019-03-01T14:41:35.887Z,100477.13
2019-03-01T14:44:00.331Z,100480.58
2019-03-01T14:46:24.838Z,100484.44
2019-03-01T14:48:49.393Z,100491.70
2019-03-01T14:51:13.856Z,100489.04
2019-03-01T14:53:38.275Z,100493.52
2019-03-01T14:56:12.006Z,100486.79
2019-03-01T14:58:48.394Z,100484.28
2019-03-01T15:01:27.943Z,100482.94
2019-03-01T15:03:53.560Z,100494.34
2019-03-01T15:06:20.080Z,100499.05
2019-03-01T15:08:45.149Z,100504.83
2019-03-01T15:11:12.070Z,100506.76
2019-03-01T15:13:36.612Z,100502.02
2019-03-01T15:16:04.843Z,100507.81
2019-03-01T15:18:28.972Z,100509.36
2019-03-01T15:20:56.242Z,100514.36
2019-03-01T15:23:20.828Z,100505.84
2019-03-01T15:25:48.516Z,100505.09
2019-03-01T15:28:13.236Z,100508.42
2019-03-01T15:30:37.950Z,100515.44
2019-03-01T15:33:02.342Z,100510.78
2019-03-01T15:35:28.703Z,100509.41
2019-03-01T15:37:52.880Z,100510.50
2019-03-01T15:40:17.395Z,100517.82
2019-03-01T15:42:41.828Z,100514.94
2019-03-01T15:45:14.300Z,100518.25
2019-03-01T15:47:38.811Z,100520.27
2019-03-01T15:50:03.452Z,100522.64
2019-03-01T15:52:27.897Z,100533.77
2019-03-01T15:54:52.315Z,100531.48
2019-03-01T15:57:18.820Z,100543.81
2019-03-01T15:59:44.361Z,100547.20
2019-03-01T16:02:09.203Z,100560.02
2019-03-01T16:04:34.434Z,100555.11
2019-03-01T16:06:58.903Z,100555.35
2019-03-01T16:09:25.310Z,100558.59
2019-03-01T16:11:49.415Z,100556.00
2019-03-01T16:14:13.893Z,100562.93
2019-03-01T16:16:38.290Z,100562.11
2019-03-01T16:19:02.752Z,100561.39
2019-03-01T16:21:27.220Z,100565.77
2019-03-01T16:23:51.664Z,100562.66
2019-03-01T16:26:16.132Z,100562.46
2019-03-01T16:28:40.554Z,100561.94
2019-03-01T16:31:05.941Z,100566.42
2019-03-01T16:33:30.370Z,100571.20
2019-03-01T16:35:54.795Z,100566.09
2019-03-01T16:38:19.283Z,100574.61
2019-03-01T16:40:43.763Z,100571.74
2019-03-01T16:43:08.154Z,100564.23
2019-03-01T16:45:32.612Z,100572.41
2019-03-01T16:47:57.021Z,100567.83
2019-03-01T16:50:21.619Z,100574.34
2019-03-01T16:52:46.095Z,100579.47
2019-03-01T16:55:16.157Z,100588.83
2019-03-01T16:57:40.574Z,100586.42
2019-03-01T17:00:10.927Z,100584.31
2019-03-01T17:02:38.703Z,100582.41
2019-03-01T17:05:03.688Z,100587.31
2019-03-01T17:07:28.746Z,100592.14
2019-03-01T17:09:54.984Z,100594.66
2019-03-01T17:12:19.473Z,100598.34
2019-03-01T17:14:43.984Z,100603.94
2019-03-01T17:17:08.395Z,100610.59
2019-03-01T17:19:32.895Z,100611.54
2019-03-01T17:21:57.459Z,100620.69
2019-03-01T17:24:21.901Z,100622.31
2019-03-01T17:26:46.367Z,100613.70
2019-03-01T17:29:10.882Z,100626.13
2019-03-01T17:31:35.550Z,100622.38
2019-03-01T17:34:00.046Z,100627.20
2019-03-01T17:36:24.570Z,100626.26
2019-03-01T17:38:49.006Z,100629.78
2019-03-01T17:41:13.705Z,100626.26
2019-03-01T17:43:38.126Z,100623.70
2019-03-01T17:46:02.562Z,100627.20
2019-03-01T17:48:27.050Z,100631.27
2019-03-01T17:50:51.551Z,100638.47
2019-03-01T17:53:16.000Z,100638.95
2019-03-01T17:55:40.580Z,100650.29
2019-03-01T17:58:05.426Z,100649.49
2019-03-01T18:00:39.924Z,100650.98
2019-03-01T18:03:04.774Z,100648.14
2019-03-01T18:05:29.349Z,100648.94
2019-03-01T18:07:53.840Z,100647.25
2019-03-01T18:10:18.313Z,100652.66
2019-03-01T18:12:42.874Z,100652.52
2019-03-01T18:15:13.414Z,100661.82
2019-03-01T18:17:38.036Z,100658.31
2019-03-01T18:20:16.571Z,100663.90
2019-03-01T18:33:39.551Z,100657.52
2019-03-01T18:35:08.095Z,100669.93
2019-03-01T18:40:34.194Z,100672.36
2019-03-01T18:42:58.930Z,100674.50
2019-03-01T18:45:27.290Z,100684.59
2019-03-01T18:47:51.848Z,100686.34
2019-03-01T18:50:27.642Z,100685.70
2019-03-01T18:52:53.381Z,100686.08
2019-03-01T18:55:18.503Z,100681.73
2019-03-01T18:57:43.075Z,100678.38
2019-03-01T19:00:16.311Z,100684.80
2019-03-01T19:02:40.770Z,100679.89
2019-03-01T19:05:06.140Z,100684.03
2019-03-01T19:07:30.527Z,100684.16
2019-03-01T19:09:55.011Z,100688.95
2019-03-01T19:12:19.603Z,100683.90
2019-03-01T19:14:44.118Z,100693.06
2019-03-01T19:17:08.611Z,100697.33
2019-03-01T19:19:33.238Z,100690.63
2019-03-01T19:21:57.649Z,100696.70
2019-03-01T19:24:22.103Z,100699.34
2019-03-01T19:26:46.666Z,100697.48
2019-03-01T19:29:11.175Z,100702.95
2019-03-01T19:31:35.604Z,100702.54
2019-03-01T19:34:00.053Z,100699.85
2019-03-01T19:36:24.564Z,100698.61
2019-03-01T19:38:49.030Z,100703.48
2019-03-01T19:41:13.523Z,100705.81
2019-03-01T19:43:37.933Z,100708.07
2019-03-01T19:46:02.334Z,100709.32
2019-03-01T19:48:26.780Z,100714.95
2019-03-01T19:50:51.257Z,100716.15
2019-03-01T19:53:15.676Z,100713.07
2019-03-01T19:55:40.114Z,100712.69
2019-03-01T19:58:04.609Z,100715.23
2019-03-01T20:00:33.764Z,100717.02
2019-03-01T20:02:58.252Z,100714.39
2019-03-01T20:05:31.674Z,100714.09
2019-03-01T20:07:56.742Z,100711.40
2019-03-01T20:10:21.318Z,100714.42
2019-03-01T20:12:45.958Z,100715.05
2019-03-01T20:15:15.940Z,100716.33
2019-03-01T20:17:44.412Z,100718.73
2019-03-01T20:20:12.421Z,100718.40
2019-03-01T20:22:36.820Z,100724.45
2019-03-01T20:25:01.270Z,100729.34
2019-03-01T20:27:25.739Z,100733.88
2019-03-01T20:29:52.480Z,100735.37
2019-03-01T20:32:16.598Z,100736.14
2019-03-01T20:34:41.096Z,100739.86
2019-03-01T20:37:06.170Z,100736.53
2019-03-01T20:39:30.593Z,100738.65
2019-03-01T20:41:55.036Z,100742.36
2019-03-01T20:44:19.889Z,100745.92
2019-03-01T20:46:45.014Z,100735.00
2019-03-01T20:49:09.646Z,100733.87
2019-03-01T20:51:34.112Z,100737.78
2019-03-01T20:53:58.529Z,100735.23
2019-03-01T20:56:23.033Z,100741.02
2019-03-01T20:58:47.444Z,100745.26
2019-03-01T21:01:11.912Z,100745.98
2019-03-01T21:03:36.945Z,100741.23
2019-03-01T21:06:04.306Z,100748.37
2019-03-01T21:08:29.114Z,100751.36
2019-03-01T21:10:53.885Z,100747.25
2019-03-01T21:13:18.322Z,100747.25
2019-03-01T21:15:42.824Z,100748.80
2019-03-01T21:18:07.441Z,100745.87
2019-03-01T21:20:31.870Z,100748.58
2019-03-01T21:22:56.343Z,100751.45
2019-03-01T21:25:25.059Z,100744.81
2019-03-01T21:27:49.823Z,100751.70
2019-03-01T21:30:17.313Z,100749.17
2019-03-01T21:32:41.793Z,100752.72
2019-03-01T21:35:06.588Z,100751.59
2019-03-01T21:37:31.036Z,100755.22
2019-03-01T21:39:58.877Z,100754.84
2019-03-01T21:42:21.675Z,100754.37
2019-03-01T21:44:46.740Z,100746.31
2019-03-01T21:47:13.614Z,100753.79
2019-03-01T21:49:37.561Z,100751.13
2019-03-01T21:52:02.047Z,100752.73
2019-03-01T21:54:26.548Z,100753.46
2019-03-01T21:56:56.008Z,100748.15
2019-03-01T21:59:18.322Z,100754.58
2019-03-01T22:01:43.046Z,100759.02
2019-03-01T22:04:07.472Z,100756.87
2019-03-01T22:06:32.152Z,100758.45
2019-03-01T22:08:56.651Z,100761.20
2019-03-01T22:11:21.074Z,100760.11
2019-03-01T22:13:45.517Z,100754.91
2019-03-01T22:16:09.895Z,100751.88
2019-03-01T22:18:36.295Z,100756.73
2019-03-01T22:21:00.450Z,100756.54
2019-03-01T22:23:26.427Z,100758.28
2019-03-01T22:25:50.883Z,100759.61
2019-03-01T22:28:15.309Z,100762.43
2019-03-01T22:30:39.756Z,100762.45
2019-03-01T22:33:04.168Z,100771.28
2019-03-01T22:35:28.593Z,100773.51
2019-03-01T22:37:53.682Z,100764.20
2019-03-01T22:40:18.096Z,100762.16
2019-03-01T22:42:45.912Z,100769.41
2019-03-01T22:45:14.594Z,100763.58
2019-03-01T22:47:39.291Z,100766.41
2019-03-01T22:50:06.996Z,100768.75
2019-03-01T22:52:31.692Z,100770.75
2019-03-01T22:54:57.745Z,100762.43
2019-03-01T22:57:22.693Z,100765.55
2019-03-01T22:59:48.617Z,100779.03
2019-03-01T23:02:14.471Z,100778.23
2019-03-01T23:04:38.896Z,100782.17
2019-03-01T23:07:03.349Z,100782.17
2019-03-01T23:09:27.998Z,100772.70
2019-03-01T23:11:52.480Z,100782.96
2019-03-01T23:14:16.896Z,100785.72
2019-03-01T23:16:41.422Z,100785.91
2019-03-01T23:19:05.983Z,100785.52
2019-03-01T23:21:32.604Z,100780.01
2019-03-01T23:23:59.625Z,100782.18
2019-03-01T23:26:22.661Z,100791.62
2019-03-01T23:28:47.098Z,100794.55
2019-03-01T23:31:11.530Z,100793.77
2019-03-01T23:33:36.046Z,100794.76
2019-03-01T23:36:00.457Z,100794.18
2019-03-01T23:38:25.030Z,100798.11
2019-03-01T23:40:49.439Z,100788.67
2019-03-01T23:43:13.860Z,100791.60
2019-03-01T23:45:38.428Z,100795.48
2019-03-01T23:48:02.869Z,100789.27
2019-03-01T23:50:27.414Z,100786.63
2019-03-01T23:52:54.772Z,100784.90
2019-03-01T23:55:19.059Z,100790.97
2019-03-01T23:57:44.231Z,100786.52
